sensor_id;sensor_type;location;lat;lon;timestamp;P1;durP1;ratioP1;P2;durP2;ratioP2
22531;SDS011;11432;46.924;7.114;2023-03-01T00:00:39;17.05;;;11.85;;
22531;SDS011;11432;46.924;7.114;2023-03-01T00:03:05;16.27;;;12.45;;
22531;SDS011;11432;46.924;7.114;2023-03-01T00:05:31;19.02;;;13.73;;
22531;SDS011;11432;46.924;7.114;2023-03-01T00:07:57;17.92;;;12.23;;
22531;SDS011;11432;46.924;7.114;2023-03-01T00:10:23;16.75;;;13.55;;
22531;SDS011;11432;46.924;7.114;2023-03-01T00:12:49;18.10;;;13.57;;
22531;SDS011;11432;46.924;7.114;2023-03-01T00:15:14;17.50;;;14.10;;
22531;SDS011;11432;46.924;7.114;2023-03-01T00:17:40;16.70;;;12.43;;
22531;SDS011;11432;46.924;7.114;2023-03-01T00:20:06;20.05;;;14.43;;
22531;SDS011;11432;46.924;7.114;2023-03-01T00:22:35;18.48;;;13.20;;
22531;SDS011;11432;46.924;7.114;2023-03-01T00:25:03;16.05;;;10.80;;
22531;SDS011;11432;46.924;7.114;2023-03-01T00:27:29;17.17;;;12.77;;
22531;SDS011;11432;46.924;7.114;2023-03-01T00:29:54;17.63;;;12.93;;
22531;SDS011;11432;46.924;7.114;2023-03-01T00:32:20;17.35;;;13.45;;
22531;SDS011;11432;46.924;7.114;2023-03-01T00:34:46;20.30;;;13.57;;
22531;SDS011;11432;46.924;7.114;2023-03-01T00:37:22;18.08;;;13.55;;
22531;SDS011;11432;46.924;7.114;2023-03-01T00:39:48;21.67;;;14.10;;
22531;SDS011;11432;46.924;7.114;2023-03-01T00:42:14;20.40;;;13.65;;
22531;SDS011;11432;46.924;7.114;2023-03-01T00:44:40;21.65;;;13.77;;
22531;SDS011;11432;46.924;7.114;2023-03-01T00:47:06;20.45;;;14.20;;
22531;SDS011;11432;46.924;7.114;2023-03-01T00:49:32;20.20;;;13.50;;
22531;SDS011;11432;46.924;7.114;2023-03-01T00:51:57;21.00;;;13.20;;
22531;SDS011;11432;46.924;7.114;2023-03-01T00:54:24;18.15;;;13.70;;
22531;SDS011;11432;46.924;7.114;2023-03-01T00:56:50;18.88;;;13.77;;
22531;SDS011;11432;46.924;7.114;2023-03-01T00:59:15;17.50;;;13.45;;
22531;SDS011;11432;46.924;7.114;2023-03-01T01:01:41;17.95;;;12.73;;
22531;SDS011;11432;46.924;7.114;2023-03-01T01:04:07;18.80;;;13.05;;
22531;SDS011;11432;46.924;7.114;2023-03-01T01:06:39;19.13;;;12.90;;
22531;SDS011;11432;46.924;7.114;2023-03-01T01:09:14;17.90;;;13.00;;
22531;SDS011;11432;46.924;7.114;2023-03-01T01:11:48;17.30;;;13.27;;
22531;SDS011;11432;46.924;7.114;2023-03-01T01:14:16;18.02;;;13.50;;
22531;SDS011;11432;46.924;7.114;2023-03-01T01:16:43;18.52;;;13.13;;
22531;SDS011;11432;46.924;7.114;2023-03-01T01:19:09;17.73;;;12.98;;
22531;SDS011;11432;46.924;7.114;2023-03-01T01:21:35;19.25;;;13.85;;
22531;SDS011;11432;46.924;7.114;2023-03-01T01:24:02;19.25;;;14.02;;
22531;SDS011;11432;46.924;7.114;2023-03-01T01:26:29;19.80;;;13.20;;
22531;SDS011;11432;46.924;7.114;2023-03-01T01:28:57;17.60;;;13.32;;
22531;SDS011;11432;46.924;7.114;2023-03-01T01:31:23;18.80;;;12.55;;
22531;SDS011;11432;46.924;7.114;2023-03-01T01:33:50;18.63;;;12.98;;
22531;SDS011;11432;46.924;7.114;2023-03-01T01:36:16;18.42;;;13.90;;
22531;SDS011;11432;46.924;7.114;2023-03-01T01:38:42;18.73;;;13.73;;
22531;SDS011;11432;46.924;7.114;2023-03-01T01:41:08;18.80;;;14.00;;
22531;SDS011;11432;46.924;7.114;2023-03-01T01:43:40;19.63;;;13.88;;
22531;SDS011;11432;46.924;7.114;2023-03-01T01:46:15;19.15;;;14.10;;
22531;SDS011;11432;46.924;7.114;2023-03-01T01:48:48;19.27;;;13.88;;
22531;SDS011;11432;46.924;7.114;2023-03-01T01:51:23;21.00;;;14.23;;
22531;SDS011;11432;46.924;7.114;2023-03-01T01:53:54;19.27;;;14.10;;
22531;SDS011;11432;46.924;7.114;2023-03-01T01:56:24;20.20;;;14.07;;
22531;SDS011;11432;46.924;7.114;2023-03-01T01:58:52;20.77;;;14.95;;
22531;SDS011;11432;46.924;7.114;2023-03-01T02:01:18;20.65;;;14.40;;
22531;SDS011;11432;46.924;7.114;2023-03-01T02:03:45;16.60;;;12.65;;
22531;SDS011;11432;46.924;7.114;2023-03-01T02:06:25;19.77;;;14.25;;
22531;SDS011;11432;46.924;7.114;2023-03-01T02:08:54;16.80;;;10.77;;
22531;SDS011;11432;46.924;7.114;2023-03-01T02:11:27;20.13;;;13.25;;
22531;SDS011;11432;46.924;7.114;2023-03-01T02:13:54;20.35;;;13.57;;
22531;SDS011;11432;46.924;7.114;2023-03-01T02:16:20;20.00;;;14.07;;
22531;SDS011;11432;46.924;7.114;2023-03-01T02:18:46;19.23;;;13.63;;
22531;SDS011;11432;46.924;7.114;2023-03-01T02:24:10;17.75;;;13.48;;
22531;SDS011;11432;46.924;7.114;2023-03-01T02:26:56;20.25;;;14.23;;
22531;SDS011;11432;46.924;7.114;2023-03-01T02:29:23;20.02;;;13.73;;
22531;SDS011;11432;46.924;7.114;2023-03-01T02:31:49;19.02;;;13.75;;
22531;SDS011;11432;46.924;7.114;2023-03-01T02:34:18;19.23;;;13.63;;
22531;SDS011;11432;46.924;7.114;2023-03-01T02:39:20;20.33;;;14.65;;
22531;SDS011;11432;46.924;7.114;2023-03-01T02:41:51;20.05;;;13.98;;
22531;SDS011;11432;46.924;7.114;2023-03-01T02:44:19;17.20;;;13.38;;
22531;SDS011;11432;46.924;7.114;2023-03-01T02:46:47;20.75;;;14.85;;
22531;SDS011;11432;46.924;7.114;2023-03-01T02:49:30;19.08;;;13.95;;
22531;SDS011;11432;46.924;7.114;2023-03-01T02:57:27;20.85;;;14.30;;
22531;SDS011;11432;46.924;7.114;2023-03-01T02:59:54;23.45;;;15.90;;
22531;SDS011;11432;46.924;7.114;2023-03-01T03:02:23;20.52;;;14.68;;
22531;SDS011;11432;46.924;7.114;2023-03-01T03:05:04;20.95;;;14.65;;
22531;SDS011;11432;46.924;7.114;2023-03-01T03:07:36;20.17;;;14.18;;
22531;SDS011;11432;46.924;7.114;2023-03-01T03:10:05;19.20;;;14.80;;
22531;SDS011;11432;46.924;7.114;2023-03-01T03:12:33;20.20;;;13.45;;
22531;SDS011;11432;46.924;7.114;2023-03-01T03:14:59;20.60;;;14.77;;
22531;SDS011;11432;46.924;7.114;2023-03-01T03:17:25;23.38;;;15.15;;
22531;SDS011;11432;46.924;7.114;2023-03-01T03:19:50;19.67;;;14.35;;
22531;SDS011;11432;46.924;7.114;2023-03-01T03:22:16;18.85;;;14.10;;
22531;SDS011;11432;46.924;7.114;2023-03-01T03:24:42;20.25;;;14.15;;
22531;SDS011;11432;46.924;7.114;2023-03-01T03:27:07;22.75;;;15.05;;
22531;SDS011;11432;46.924;7.114;2023-03-01T03:29:33;21.77;;;14.70;;
22531;SDS011;11432;46.924;7.114;2023-03-01T03:31:58;20.85;;;14.88;;
22531;SDS011;11432;46.924;7.114;2023-03-01T03:34:24;19.13;;;14.30;;
22531;SDS011;11432;46.924;7.114;2023-03-01T03:36:54;21.35;;;14.07;;
22531;SDS011;11432;46.924;7.114;2023-03-01T03:39:24;20.35;;;14.15;;
22531;SDS011;11432;46.924;7.114;2023-03-01T03:41:51;20.70;;;14.27;;
22531;SDS011;11432;46.924;7.114;2023-03-01T03:44:16;21.00;;;14.60;;
22531;SDS011;11432;46.924;7.114;2023-03-01T03:46:42;24.02;;;14.38;;
22531;SDS011;11432;46.924;7.114;2023-03-01T03:49:07;20.77;;;14.77;;
22531;SDS011;11432;46.924;7.114;2023-03-01T03:51:33;20.02;;;13.93;;
22531;SDS011;11432;46.924;7.114;2023-03-01T03:53:58;23.50;;;14.13;;
22531;SDS011;11432;46.924;7.114;2023-03-01T03:56:24;20.00;;;12.93;;
22531;SDS011;11432;46.924;7.114;2023-03-01T03:58:51;22.08;;;14.77;;
22531;SDS011;11432;46.924;7.114;2023-03-01T04:01:17;21.85;;;13.35;;
22531;SDS011;11432;46.924;7.114;2023-03-01T04:03:43;19.95;;;14.52;;
22531;SDS011;11432;46.924;7.114;2023-03-01T04:06:12;23.03;;;15.03;;
22531;SDS011;11432;46.924;7.114;2023-03-01T04:08:40;22.05;;;12.75;;
22531;SDS011;11432;46.924;7.114;2023-03-01T04:11:06;20.23;;;13.40;;
22531;SDS011;11432;46.924;7.114;2023-03-01T04:13:51;21.20;;;14.32;;
22531;SDS011;11432;46.924;7.114;2023-03-01T04:16:19;21.48;;;14.02;;
22531;SDS011;11432;46.924;7.114;2023-03-01T04:18:45;20.42;;;13.20;;
22531;SDS011;11432;46.924;7.114;2023-03-01T04:21:11;21.95;;;14.60;;
22531;SDS011;11432;46.924;7.114;2023-03-01T04:23:37;21.90;;;13.63;;
22531;SDS011;11432;46.924;7.114;2023-03-01T04:26:03;20.92;;;13.45;;
22531;SDS011;11432;46.924;7.114;2023-03-01T04:28:30;19.63;;;14.40;;
22531;SDS011;11432;46.924;7.114;2023-03-01T04:31:07;21.05;;;14.50;;
22531;SDS011;11432;46.924;7.114;2023-03-01T04:33:38;20.35;;;13.75;;
22531;SDS011;11432;46.924;7.114;2023-03-01T04:36:08;20.50;;;14.48;;
22531;SDS011;11432;46.924;7.114;2023-03-01T04:38:36;21.83;;;14.35;;
22531;SDS011;11432;46.924;7.114;2023-03-01T04:41:04;20.85;;;13.20;;
22531;SDS011;11432;46.924;7.114;2023-03-01T04:43:31;21.42;;;13.52;;
22531;SDS011;11432;46.924;7.114;2023-03-01T04:46:04;22.65;;;14.57;;
22531;SDS011;11432;46.924;7.114;2023-03-01T04:48:33;21.88;;;14.55;;
22531;SDS011;11432;46.924;7.114;2023-03-01T04:51:00;22.30;;;14.88;;
22531;SDS011;11432;46.924;7.114;2023-03-01T04:53:26;21.38;;;14.20;;
22531;SDS011;11432;46.924;7.114;2023-03-01T04:55:54;22.98;;;15.48;;
22531;SDS011;11432;46.924;7.114;2023-03-01T04:58:21;19.85;;;12.73;;
22531;SDS011;11432;46.924;7.114;2023-03-01T05:00:50;20.73;;;13.80;;
22531;SDS011;11432;46.924;7.114;2023-03-01T05:03:17;23.88;;;15.20;;
22531;SDS011;11432;46.924;7.114;2023-03-01T05:05:43;22.60;;;14.68;;
22531;SDS011;11432;46.924;7.114;2023-03-01T05:08:10;20.05;;;14.48;;
22531;SDS011;11432;46.924;7.114;2023-03-01T05:10:43;22.15;;;14.43;;
22531;SDS011;11432;46.924;7.114;2023-03-01T05:13:11;20.77;;;14.88;;
22531;SDS011;11432;46.924;7.114;2023-03-01T05:15:46;23.35;;;15.18;;
22531;SDS011;11432;46.924;7.114;2023-03-01T05:18:13;21.25;;;13.73;;
22531;SDS011;11432;46.924;7.114;2023-03-01T05:20:39;20.40;;;12.55;;
22531;SDS011;11432;46.924;7.114;2023-03-01T05:23:05;24.45;;;15.20;;
22531;SDS011;11432;46.924;7.114;2023-03-01T05:25:31;24.40;;;15.35;;
22531;SDS011;11432;46.924;7.114;2023-03-01T05:28:02;25.15;;;15.38;;
22531;SDS011;11432;46.924;7.114;2023-03-01T05:30:30;21.48;;;14.88;;
22531;SDS011;11432;46.924;7.114;2023-03-01T05:32:57;24.13;;;14.50;;
22531;SDS011;11432;46.924;7.114;2023-03-01T05:35:23;22.13;;;13.80;;
22531;SDS011;11432;46.924;7.114;2023-03-01T05:37:49;24.02;;;14.38;;
22531;SDS011;11432;46.924;7.114;2023-03-01T05:40:19;21.15;;;13.52;;
22531;SDS011;11432;46.924;7.114;2023-03-01T05:42:51;22.75;;;15.25;;
22531;SDS011;11432;46.924;7.114;2023-03-01T05:45:22;23.15;;;15.10;;
22531;SDS011;11432;46.924;7.114;2023-03-01T05:47:49;21.25;;;14.35;;
22531;SDS011;11432;46.924;7.114;2023-03-01T05:52:44;22.20;;;13.75;;
22531;SDS011;11432;46.924;7.114;2023-03-01T05:58:00;23.52;;;15.20;;
22531;SDS011;11432;46.924;7.114;2023-03-01T06:00:27;24.08;;;15.48;;
22531;SDS011;11432;46.924;7.114;2023-03-01T06:02:53;23.67;;;15.73;;
22531;SDS011;11432;46.924;7.114;2023-03-01T06:05:20;22.52;;;14.13;;
22531;SDS011;11432;46.924;7.114;2023-03-01T06:07:45;24.58;;;14.68;;
22531;SDS011;11432;46.924;7.114;2023-03-01T06:10:12;23.63;;;15.82;;
22531;SDS011;11432;46.924;7.114;2023-03-01T06:12:38;22.23;;;13.57;;
22531;SDS011;11432;46.924;7.114;2023-03-01T06:15:05;22.30;;;14.80;;
22531;SDS011;11432;46.924;7.114;2023-03-01T06:17:35;25.13;;;15.98;;
22531;SDS011;11432;46.924;7.114;2023-03-01T06:20:05;21.55;;;13.38;;
22531;SDS011;11432;46.924;7.114;2023-03-01T06:22:35;25.85;;;15.88;;
22531;SDS011;11432;46.924;7.114;2023-03-01T06:25:01;23.75;;;15.50;;
22531;SDS011;11432;46.924;7.114;2023-03-01T06:27:27;24.58;;;16.63;;
22531;SDS011;11432;46.924;7.114;2023-03-01T06:29:53;21.52;;;14.23;;
22531;SDS011;11432;46.924;7.114;2023-03-01T06:32:19;23.02;;;14.93;;
22531;SDS011;11432;46.924;7.114;2023-03-01T06:34:44;24.75;;;15.25;;
22531;SDS011;11432;46.924;7.114;2023-03-01T06:37:10;25.38;;;15.05;;
22531;SDS011;11432;46.924;7.114;2023-03-01T06:39:36;24.83;;;16.33;;
22531;SDS011;11432;46.924;7.114;2023-03-01T06:44:15;22.58;;;13.60;;
22531;SDS011;11432;46.924;7.114;2023-03-01T06:46:40;23.08;;;13.98;;
22531;SDS011;11432;46.924;7.114;2023-03-01T06:49:06;24.05;;;13.88;;
22531;SDS011;11432;46.924;7.114;2023-03-01T06:51:34;21.92;;;14.93;;
22531;SDS011;11432;46.924;7.114;2023-03-01T06:54:02;24.80;;;14.43;;
22531;SDS011;11432;46.924;7.114;2023-03-01T06:56:28;24.05;;;15.35;;
22531;SDS011;11432;46.924;7.114;2023-03-01T07:00:04;23.20;;;15.32;;
22531;SDS011;11432;46.924;7.114;2023-03-01T07:02:30;22.77;;;14.05;;
22531;SDS011;11432;46.924;7.114;2023-03-01T07:04:56;22.55;;;14.75;;
22531;SDS011;11432;46.924;7.114;2023-03-01T07:07:22;23.33;;;14.88;;
22531;SDS011;11432;46.924;7.114;2023-03-01T07:09:48;23.30;;;14.52;;
22531;SDS011;11432;46.924;7.114;2023-03-01T07:12:14;21.75;;;14.70;;
22531;SDS011;11432;46.924;7.114;2023-03-01T07:14:40;23.02;;;15.15;;
22531;SDS011;11432;46.924;7.114;2023-03-01T07:17:05;22.38;;;13.70;;
22531;SDS011;11432;46.924;7.114;2023-03-01T07:19:31;23.67;;;14.00;;
22531;SDS011;11432;46.924;7.114;2023-03-01T07:21:57;23.05;;;13.70;;
22531;SDS011;11432;46.924;7.114;2023-03-01T07:24:22;21.83;;;13.68;;
22531;SDS011;11432;46.924;7.114;2023-03-01T07:26:49;23.58;;;15.13;;
22531;SDS011;11432;46.924;7.114;2023-03-01T07:29:15;23.52;;;14.48;;
22531;SDS011;11432;46.924;7.114;2023-03-01T07:31:41;23.00;;;14.98;;
22531;SDS011;11432;46.924;7.114;2023-03-01T07:34:06;23.10;;;15.43;;
22531;SDS011;11432;46.924;7.114;2023-03-01T07:36:32;24.52;;;14.98;;
22531;SDS011;11432;46.924;7.114;2023-03-01T07:38:58;22.48;;;14.75;;
22531;SDS011;11432;46.924;7.114;2023-03-01T07:41:24;25.95;;;15.38;;
22531;SDS011;11432;46.924;7.114;2023-03-01T07:43:49;24.00;;;15.38;;
22531;SDS011;11432;46.924;7.114;2023-03-01T07:46:15;22.77;;;14.32;;
22531;SDS011;11432;46.924;7.114;2023-03-01T07:48:41;22.65;;;14.60;;
22531;SDS011;11432;46.924;7.114;2023-03-01T07:51:06;23.55;;;14.73;;
22531;SDS011;11432;46.924;7.114;2023-03-01T07:53:32;26.05;;;15.43;;
22531;SDS011;11432;46.924;7.114;2023-03-01T07:56:08;23.17;;;14.23;;
22531;SDS011;11432;46.924;7.114;2023-03-01T07:58:36;24.63;;;15.23;;
22531;SDS011;11432;46.924;7.114;2023-03-01T08:01:04;27.73;;;16.35;;
22531;SDS011;11432;46.924;7.114;2023-03-01T08:03:32;22.83;;;14.47;;
22531;SDS011;11432;46.924;7.114;2023-03-01T08:05:59;23.88;;;15.75;;
22531;SDS011;11432;46.924;7.114;2023-03-01T08:08:25;24.40;;;15.50;;
22531;SDS011;11432;46.924;7.114;2023-03-01T08:10:51;24.90;;;14.57;;
22531;SDS011;11432;46.924;7.114;2023-03-01T08:13:17;23.65;;;15.70;;
22531;SDS011;11432;46.924;7.114;2023-03-01T08:15:47;21.77;;;14.82;;
22531;SDS011;11432;46.924;7.114;2023-03-01T08:18:14;22.42;;;14.40;;
22531;SDS011;11432;46.924;7.114;2023-03-01T08:20:40;24.70;;;15.18;;
22531;SDS011;11432;46.924;7.114;2023-03-01T08:23:06;21.92;;;14.25;;
22531;SDS011;11432;46.924;7.114;2023-03-01T08:25:31;23.30;;;15.02;;
22531;SDS011;11432;46.924;7.114;2023-03-01T08:27:57;24.35;;;14.68;;
22531;SDS011;11432;46.924;7.114;2023-03-01T08:30:22;23.65;;;14.30;;
22531;SDS011;11432;46.924;7.114;2023-03-01T08:32:48;24.48;;;15.52;;
22531;SDS011;11432;46.924;7.114;2023-03-01T08:35:14;22.90;;;14.27;;
22531;SDS011;11432;46.924;7.114;2023-03-01T08:37:40;24.50;;;15.23;;
22531;SDS011;11432;46.924;7.114;2023-03-01T08:40:06;23.45;;;15.05;;
22531;SDS011;11432;46.924;7.114;2023-03-01T08:42:34;22.97;;;14.40;;
22531;SDS011;11432;46.924;7.114;2023-03-01T08:45:01;24.75;;;14.95;;
22531;SDS011;11432;46.924;7.114;2023-03-01T08:47:27;22.92;;;14.70;;
22531;SDS011;11432;46.924;7.114;2023-03-01T08:49:52;22.73;;;14.73;;
22531;SDS011;11432;46.924;7.114;2023-03-01T08:52:19;24.92;;;15.52;;
22531;SDS011;11432;46.924;7.114;2023-03-01T08:54:47;23.27;;;16.35;;
22531;SDS011;11432;46.924;7.114;2023-03-01T08:57:13;23.85;;;15.18;;
22531;SDS011;11432;46.924;7.114;2023-03-01T08:59:38;25.30;;;15.88;;
22531;SDS011;11432;46.924;7.114;2023-03-01T09:02:05;22.33;;;13.07;;
22531;SDS011;11432;46.924;7.114;2023-03-01T09:04:36;22.15;;;14.75;;
22531;SDS011;11432;46.924;7.114;2023-03-01T09:07:01;22.13;;;15.05;;
22531;SDS011;11432;46.924;7.114;2023-03-01T09:09:27;23.10;;;15.02;;
22531;SDS011;11432;46.924;7.114;2023-03-01T09:11:52;23.38;;;14.32;;
22531;SDS011;11432;46.924;7.114;2023-03-01T09:14:18;21.88;;;13.73;;
22531;SDS011;11432;46.924;7.114;2023-03-01T09:16:44;23.67;;;14.93;;
22531;SDS011;11432;46.924;7.114;2023-03-01T09:19:10;23.23;;;13.65;;
22531;SDS011;11432;46.924;7.114;2023-03-01T09:21:36;23.90;;;14.68;;
22531;SDS011;11432;46.924;7.114;2023-03-01T09:24:02;22.88;;;13.73;;
22531;SDS011;11432;46.924;7.114;2023-03-01T09:26:28;23.35;;;13.82;;
22531;SDS011;11432;46.924;7.114;2023-03-01T09:28:55;22.35;;;14.70;;
22531;SDS011;11432;46.924;7.114;2023-03-01T09:31:22;23.73;;;14.65;;
22531;SDS011;11432;46.924;7.114;2023-03-01T09:33:49;22.20;;;13.63;;
22531;SDS011;11432;46.924;7.114;2023-03-01T09:36:18;23.83;;;14.27;;
22531;SDS011;11432;46.924;7.114;2023-03-01T09:38:45;22.10;;;13.77;;
22531;SDS011;11432;46.924;7.114;2023-03-01T09:44:05;21.58;;;13.80;;
22531;SDS011;11432;46.924;7.114;2023-03-01T09:46:36;25.35;;;14.70;;
22531;SDS011;11432;46.924;7.114;2023-03-01T09:49:10;26.85;;;14.73;;
22531;SDS011;11432;46.924;7.114;2023-03-01T09:51:45;22.85;;;13.10;;
22531;SDS011;11432;46.924;7.114;2023-03-01T09:54:20;22.40;;;13.95;;
22531;SDS011;11432;46.924;7.114;2023-03-01T09:56:47;26.02;;;14.65;;
22531;SDS011;11432;46.924;7.114;2023-03-01T09:59:41;23.60;;;14.50;;
22531;SDS011;11432;46.924;7.114;2023-03-01T10:11:22;22.48;;;14.48;;
22531;SDS011;11432;46.924;7.114;2023-03-01T10:13:54;21.48;;;13.10;;
22531;SDS011;11432;46.924;7.114;2023-03-01T10:16:40;24.45;;;14.57;;
22531;SDS011;11432;46.924;7.114;2023-03-01T10:19:09;23.45;;;14.25;;
22531;SDS011;11432;46.924;7.114;2023-03-01T10:21:43;22.02;;;14.20;;
22531;SDS011;11432;46.924;7.114;2023-03-01T10:24:12;24.83;;;14.63;;
22531;SDS011;11432;46.924;7.114;2023-03-01T10:26:47;22.17;;;14.10;;
22531;SDS011;11432;46.924;7.114;2023-03-01T10:29:31;23.67;;;15.13;;
22531;SDS011;11432;46.924;7.114;2023-03-01T10:32:04;24.27;;;14.52;;
22531;SDS011;11432;46.924;7.114;2023-03-01T10:34:34;24.85;;;14.60;;
22531;SDS011;11432;46.924;7.114;2023-03-01T10:37:11;22.45;;;14.57;;
22531;SDS011;11432;46.924;7.114;2023-03-01T10:42:46;23.67;;;14.77;;
22531;SDS011;11432;46.924;7.114;2023-03-01T10:47:44;25.27;;;15.00;;
22531;SDS011;11432;46.924;7.114;2023-03-01T10:50:30;23.10;;;13.63;;
22531;SDS011;11432;46.924;7.114;2023-03-01T10:53:00;26.27;;;15.07;;
22531;SDS011;11432;46.924;7.114;2023-03-01T10:55:33;25.83;;;15.40;;
22531;SDS011;11432;46.924;7.114;2023-03-01T11:00:33;24.60;;;15.02;;
22531;SDS011;11432;46.924;7.114;2023-03-01T11:03:10;24.77;;;14.02;;
22531;SDS011;11432;46.924;7.114;2023-03-01T11:08:26;26.42;;;15.27;;
22531;SDS011;11432;46.924;7.114;2023-03-01T11:11:33;25.33;;;15.82;;
22531;SDS011;11432;46.924;7.114;2023-03-01T11:14:00;26.50;;;15.15;;
22531;SDS011;11432;46.924;7.114;2023-03-01T11:21:35;21.88;;;14.35;;
22531;SDS011;11432;46.924;7.114;2023-03-01T11:24:12;29.85;;;15.60;;
22531;SDS011;11432;46.924;7.114;2023-03-01T11:26:41;24.58;;;14.40;;
22531;SDS011;11432;46.924;7.114;2023-03-01T11:32:03;24.75;;;15.32;;
22531;SDS011;11432;46.924;7.114;2023-03-01T11:37:26;23.52;;;15.20;;
22531;SDS011;11432;46.924;7.114;2023-03-01T11:45:47;25.23;;;15.45;;
22531;SDS011;11432;46.924;7.114;2023-03-01T11:51:01;25.25;;;15.77;;
22531;SDS011;11432;46.924;7.114;2023-03-01T11:53:47;23.33;;;15.23;;
22531;SDS011;11432;46.924;7.114;2023-03-01T11:56:28;23.48;;;15.43;;
22531;SDS011;11432;46.924;7.114;2023-03-01T11:59:05;24.48;;;13.63;;
22531;SDS011;11432;46.924;7.114;2023-03-01T12:04:11;24.30;;;15.17;;
22531;SDS011;11432;46.924;7.114;2023-03-01T12:15:18;26.15;;;15.40;;
22531;SDS011;11432;46.924;7.114;2023-03-01T12:20:53;26.38;;;15.95;;
22531;SDS011;11432;46.924;7.114;2023-03-01T12:26:32;25.15;;;14.82;;
22531;SDS011;11432;46.924;7.114;2023-03-01T12:42:36;22.08;;;13.75;;
22531;SDS011;11432;46.924;7.114;2023-03-01T12:50:46;25.40;;;15.75;;
22531;SDS011;11432;46.924;7.114;2023-03-01T12:53:20;22.00;;;14.25;;
22531;SDS011;11432;46.924;7.114;2023-03-01T12:55:47;25.15;;;14.57;;
22531;SDS011;11432;46.924;7.114;2023-03-01T12:58:33;23.95;;;15.18;;
22531;SDS011;11432;46.924;7.114;2023-03-01T13:04:02;27.27;;;14.55;;
22531;SDS011;11432;46.924;7.114;2023-03-01T13:11:48;27.50;;;15.55;;
22531;SDS011;11432;46.924;7.114;2023-03-01T13:16:45;24.05;;;12.27;;
22531;SDS011;11432;46.924;7.114;2023-03-01T13:21:45;26.20;;;15.75;;
22531;SDS011;11432;46.924;7.114;2023-03-01T13:29:47;26.97;;;16.67;;
22531;SDS011;11432;46.924;7.114;2023-03-01T13:32:21;28.08;;;15.35;;
22531;SDS011;11432;46.924;7.114;2023-03-01T13:37:44;25.73;;;16.13;;
22531;SDS011;11432;46.924;7.114;2023-03-01T13:42:52;26.45;;;15.65;;
22531;SDS011;11432;46.924;7.114;2023-03-01T13:45:21;25.92;;;15.65;;
22531;SDS011;11432;46.924;7.114;2023-03-01T13:47:53;24.92;;;16.85;;
22531;SDS011;11432;46.924;7.114;2023-03-01T13:50:24;27.60;;;16.20;;
22531;SDS011;11432;46.924;7.114;2023-03-01T13:52:53;24.77;;;14.35;;
22531;SDS011;11432;46.924;7.114;2023-03-01T13:55:38;25.77;;;16.80;;
22531;SDS011;11432;46.924;7.114;2023-03-01T14:03:52;27.35;;;14.73;;
22531;SDS011;11432;46.924;7.114;2023-03-01T14:06:23;18.90;;;10.27;;
22531;SDS011;11432;46.924;7.114;2023-03-01T14:08:52;27.33;;;16.75;;
22531;SDS011;11432;46.924;7.114;2023-03-01T14:19:26;27.33;;;15.87;;
22531;SDS011;11432;46.924;7.114;2023-03-01T14:25:36;26.23;;;16.02;;
22531;SDS011;11432;46.924;7.114;2023-03-01T14:28:33;28.40;;;15.98;;
22531;SDS011;11432;46.924;7.114;2023-03-01T14:38:22;27.08;;;15.55;;
22531;SDS011;11432;46.924;7.114;2023-03-01T14:40:54;25.58;;;16.25;;
22531;SDS011;11432;46.924;7.114;2023-03-01T14:43:23;25.42;;;15.00;;
22531;SDS011;11432;46.924;7.114;2023-03-01T14:45:51;26.33;;;16.55;;
22531;SDS011;11432;46.924;7.114;2023-03-01T14:48:17;27.98;;;16.85;;
22531;SDS011;11432;46.924;7.114;2023-03-01T14:50:44;21.98;;;14.25;;
22531;SDS011;11432;46.924;7.114;2023-03-01T14:55:47;32.65;;;18.23;;
22531;SDS011;11432;46.924;7.114;2023-03-01T14:58:18;26.10;;;16.40;;
22531;SDS011;11432;46.924;7.114;2023-03-01T15:00:48;27.30;;;16.42;;
22531;SDS011;11432;46.924;7.114;2023-03-01T15:03:32;26.02;;;15.90;;
22531;SDS011;11432;46.924;7.114;2023-03-01T15:06:06;26.38;;;16.15;;
22531;SDS011;11432;46.924;7.114;2023-03-01T15:08:33;25.73;;;15.07;;
22531;SDS011;11432;46.924;7.114;2023-03-01T15:13:47;25.83;;;13.80;;
22531;SDS011;11432;46.924;7.114;2023-03-01T15:18:57;23.13;;;14.30;;
22531;SDS011;11432;46.924;7.114;2023-03-01T15:21:32;25.83;;;15.23;;
22531;SDS011;11432;46.924;7.114;2023-03-01T15:26:45;31.23;;;16.63;;
22531;SDS011;11432;46.924;7.114;2023-03-01T15:29:19;25.10;;;16.33;;
22531;SDS011;11432;46.924;7.114;2023-03-01T15:34:27;26.52;;;15.30;;
22531;SDS011;11432;46.924;7.114;2023-03-01T15:36:55;26.02;;;15.70;;
22531;SDS011;11432;46.924;7.114;2023-03-01T15:39:34;22.45;;;13.48;;
22531;SDS011;11432;46.924;7.114;2023-03-01T15:42:12;27.48;;;16.05;;
22531;SDS011;11432;46.924;7.114;2023-03-01T15:45:08;25.52;;;15.65;;
22531;SDS011;11432;46.924;7.114;2023-03-01T15:47:39;27.10;;;16.95;;
22531;SDS011;11432;46.924;7.114;2023-03-01T15:50:11;25.67;;;15.82;;
22531;SDS011;11432;46.924;7.114;2023-03-01T15:52:45;25.08;;;15.85;;
22531;SDS011;11432;46.924;7.114;2023-03-01T15:55:18;26.60;;;16.55;;
22531;SDS011;11432;46.924;7.114;2023-03-01T15:57:46;26.92;;;16.55;;
22531;SDS011;11432;46.924;7.114;2023-03-01T16:00:13;28.77;;;16.02;;
22531;SDS011;11432;46.924;7.114;2023-03-01T16:02:40;23.85;;;15.57;;
22531;SDS011;11432;46.924;7.114;2023-03-01T16:05:26;26.83;;;15.93;;
22531;SDS011;11432;46.924;7.114;2023-03-01T16:07:53;27.60;;;16.52;;
22531;SDS011;11432;46.924;7.114;2023-03-01T16:10:19;24.30;;;13.82;;
22531;SDS011;11432;46.924;7.114;2023-03-01T16:12:46;26.27;;;14.80;;
22531;SDS011;11432;46.924;7.114;2023-03-01T16:15:26;25.38;;;14.75;;
22531;SDS011;11432;46.924;7.114;2023-03-01T16:17:56;29.02;;;16.50;;
22531;SDS011;11432;46.924;7.114;2023-03-01T16:20:25;27.60;;;16.23;;
22531;SDS011;11432;46.924;7.114;2023-03-01T16:22:52;26.48;;;15.75;;
22531;SDS011;11432;46.924;7.114;2023-03-01T16:25:18;29.17;;;16.50;;
22531;SDS011;11432;46.924;7.114;2023-03-01T16:27:46;25.40;;;16.48;;
22531;SDS011;11432;46.924;7.114;2023-03-01T16:30:13;20.55;;;10.73;;
22531;SDS011;11432;46.924;7.114;2023-03-01T16:32:41;25.48;;;15.13;;
22531;SDS011;11432;46.924;7.114;2023-03-01T16:35:08;25.80;;;14.77;;
22531;SDS011;11432;46.924;7.114;2023-03-01T16:37:36;26.48;;;15.82;;
22531;SDS011;11432;46.924;7.114;2023-03-01T16:40:02;28.63;;;16.27;;
22531;SDS011;11432;46.924;7.114;2023-03-01T16:42:33;25.75;;;15.73;;
22531;SDS011;11432;46.924;7.114;2023-03-01T16:45:00;22.90;;;15.05;;
22531;SDS011;11432;46.924;7.114;2023-03-01T16:47:26;22.38;;;13.38;;
22531;SDS011;11432;46.924;7.114;2023-03-01T16:49:53;26.17;;;16.05;;
22531;SDS011;11432;46.924;7.114;2023-03-01T16:52:20;25.92;;;16.45;;
22531;SDS011;11432;46.924;7.114;2023-03-01T16:54:46;27.77;;;15.88;;
22531;SDS011;11432;46.924;7.114;2023-03-01T16:57:12;24.83;;;15.18;;
22531;SDS011;11432;46.924;7.114;2023-03-01T16:59:38;26.02;;;14.55;;
22531;SDS011;11432;46.924;7.114;2023-03-01T17:02:04;28.02;;;16.23;;
22531;SDS011;11432;46.924;7.114;2023-03-01T17:04:31;25.33;;;15.63;;
22531;SDS011;11432;46.924;7.114;2023-03-01T17:06:57;24.88;;;14.73;;
22531;SDS011;11432;46.924;7.114;2023-03-01T17:09:22;27.73;;;15.50;;
22531;SDS011;11432;46.924;7.114;2023-03-01T17:11:48;27.20;;;16.52;;